Observations for BARCELONA AIRPORT, Spain (LEBL)

LEBL 180530Z 33007G17KT 300V010 9999 FEW018 19/16 Q1021 NOSIG   
LEBL 180500Z 33007KT 9999 FEW018 19/15 Q1020 NOSIG  
LEBL 180430Z 33007KT 9999 FEW015 19/15 Q1020 NOSIG  
LEBL 180400Z 32006KT 9999 FEW013 19/15 Q1020 NOSIG  
LEBL 180330Z 32005KT 9999 SCT016 19/15 Q1020 NOSIG  
LEBL 180300Z 31004KT 9999 FEW010 19/15 Q1020 NOSIG  
LEBL 180230Z 31005KT 9999 FEW010 19/15 Q1020 NOSIG  
LEBL 180200Z 30003KT 9999 FEW010 19/15 Q1020 NOSIG  
LEBL 180130Z 30005KT 9999 FEW010 19/15 Q1020 NOSIG  
LEBL 180100Z 30005KT 9999 FEW020 19/14 Q1020 NOSIG  
LEBL 180030Z 34004KT 9999 FEW020 19/14 Q1020 NOSIG  
LEBL 180000Z VRB02KT 9999 FEW020 20/15 Q1021 NOSIG  
LEBL 172330Z VRB01KT 9999 FEW020 21/16 Q1021 NOSIG  
LEBL 172300Z VRB02KT 9999 FEW020 21/16 Q1021 NOSIG  
LEBL 172230Z 11003KT 9999 FEW020 22/16 Q1020 NOSIG  
LEBL 172200Z 09003KT 9999 FEW020 22/16 Q1021 NOSIG  
LEBL 172130Z 11003KT 9999 FEW020 22/15 Q1021 NOSIG  
LEBL 172100Z 12001KT 9999 FEW020 22/15 Q1020 NOSIG  
LEBL 172030Z VRB02KT 9999 FEW020 22/15 Q1020 NOSIG  
LEBL 172000Z 20003KT 160V220 9999 FEW020 22/16 Q1020 NOSIG  
LEBL 171930Z 20004KT 9999 FEW020 22/15 Q1019 NOSIG  
LEBL 171900Z 20005KT 170V240 CAVOK 22/15 Q1019 NOSIG
LEBL 171830Z 19007KT 170V230 CAVOK 23/16 Q1019 NOSIG
LEBL 171800Z 18006KT 140V220 CAVOK 23/16 Q1019 NOSIG
LEBL 171730Z 16004KT 110V210 9999 FEW025 24/15 Q1019 NOSIG  
LEBL 171700Z 17005KT 130V220 9999 FEW025 24/15 Q1019 NOSIG  
LEBL 171630Z 20006KT 160V230 9999 FEW025 24/14 Q1019 NOSIG  
LEBL 171600Z 20006KT 170V240 9999 FEW020 24/13 Q1019 NOSIG  
LEBL 171530Z 19006KT 160V240 9999 FEW020 24/13 Q1019 NOSIG  
LEBL 171500Z 17006KT 130V210 9999 FEW020 24/16 Q1019 NOSIG  
LEBL 171430Z 20006KT 150V240 9999 SCT018 23/18 Q1019 NOSIG  
LEBL 171400Z 16007KT 110V210 9999 SCT018 23/18 Q1019 NOSIG  
LEBL 171330Z 14007KT 9999 FEW018 SCT025 24/18 Q1019 NOSIG   
LEBL 171300Z 14009KT 9999 FEW018 BKN025 24/19 Q1019 NOSIG   
LEBL 171230Z 14009KT 110V190 9999 FEW018 24/19 Q1019 NOSIG  
LEBL 171200Z 14008KT 100V190 9999 FEW018 24/19 Q1019 NOSIG  
LEBL 171130Z 15007KT 110V200 9999 FEW018 24/19 Q1019 NOSIG  
LEBL 171100Z 16007KT 120V200 9999 FEW018 23/19 Q1019 NOSIG  
LEBL 171030Z 14008KT 100V190 9999 FEW015 23/19 Q1019 NOSIG  
LEBL 171000Z 13008KT 110V180 9999 FEW015 24/19 Q1019 NOSIG  
LEBL 170930Z 15006KT 110V190 9999 FEW015 24/19 Q1019 NOSIG  
LEBL 170900Z 16005KT 110V210 9999 FEW015 23/18 Q1019 NOSIG  
LEBL 170830Z 14005KT 9999 FEW015 24/17 Q1019 NOSIG  
LEBL 170800Z 13001KT 9999 FEW015 24/16 Q1019 NOSIG  
LEBL 170730Z 35002KT CAVOK 23/15 Q1019 NOSIG
LEBL 170700Z 35003KT CAVOK 22/16 Q1019 NOSIG
LEBL 170630Z 33004KT 9999 FEW020 21/16 Q1018 NOSIG  
LEBL 170600Z 32004KT 270V350 9999 FEW020 20/16 Q1018 NOSIG  
LEBL 170530Z 30005KT 230V340 9999 FEW020 20/16 Q1018 NOSIG  
LEBL 170500Z 31005KT CAVOK 19/16 Q1017 NOSIG